sensor_id;sensor_type;location;lat;lon;timestamp;P1;durP1;ratioP1;P2;durP2;ratioP2
14592;SDS011;7383;52.354;9.756;2023-02-03T00:02:25;11.68;;;10.68;;
14592;SDS011;7383;52.354;9.756;2023-02-03T00:04:54;12.10;;;10.90;;
14592;SDS011;7383;52.354;9.756;2023-02-03T00:07:20;11.63;;;10.52;;
14592;SDS011;7383;52.354;9.756;2023-02-03T00:09:47;11.88;;;10.68;;
14592;SDS011;7383;52.354;9.756;2023-02-03T00:12:14;12.18;;;11.07;;
14592;SDS011;7383;52.354;9.756;2023-02-03T00:14:41;13.10;;;11.82;;
14592;SDS011;7383;52.354;9.756;2023-02-03T00:17:09;12.27;;;11.07;;
14592;SDS011;7383;52.354;9.756;2023-02-03T00:19:37;10.88;;;9.93;;
14592;SDS011;7383;52.354;9.756;2023-02-03T00:22:04;11.73;;;10.63;;
14592;SDS011;7383;52.354;9.756;2023-02-03T00:24:37;13.35;;;12.07;;
14592;SDS011;7383;52.354;9.756;2023-02-03T00:27:06;13.63;;;12.32;;
14592;SDS011;7383;52.354;9.756;2023-02-03T00:29:36;11.82;;;10.73;;
14592;SDS011;7383;52.354;9.756;2023-02-03T00:32:05;13.07;;;11.88;;
14592;SDS011;7383;52.354;9.756;2023-02-03T00:34:38;12.43;;;11.23;;
14592;SDS011;7383;52.354;9.756;2023-02-03T00:37:05;13.77;;;12.45;;
14592;SDS011;7383;52.354;9.756;2023-02-03T00:39:34;13.65;;;12.25;;
14592;SDS011;7383;52.354;9.756;2023-02-03T00:42:03;13.07;;;11.90;;
14592;SDS011;7383;52.354;9.756;2023-02-03T00:44:33;12.07;;;10.93;;
14592;SDS011;7383;52.354;9.756;2023-02-03T00:47:01;13.15;;;11.95;;
14592;SDS011;7383;52.354;9.756;2023-02-03T00:49:34;13.13;;;11.82;;
14592;SDS011;7383;52.354;9.756;2023-02-03T00:52:05;14.23;;;12.93;;
14592;SDS011;7383;52.354;9.756;2023-02-03T00:54:34;13.43;;;12.13;;
14592;SDS011;7383;52.354;9.756;2023-02-03T00:57:02;13.93;;;12.45;;
14592;SDS011;7383;52.354;9.756;2023-02-03T00:59:36;11.93;;;10.82;;
14592;SDS011;7383;52.354;9.756;2023-02-03T01:02:07;12.68;;;11.43;;
14592;SDS011;7383;52.354;9.756;2023-02-03T01:04:46;12.55;;;11.35;;
14592;SDS011;7383;52.354;9.756;2023-02-03T01:07:20;12.88;;;11.57;;
14592;SDS011;7383;52.354;9.756;2023-02-03T01:09:50;12.23;;;11.02;;
14592;SDS011;7383;52.354;9.756;2023-02-03T01:12:19;13.10;;;11.73;;
14592;SDS011;7383;52.354;9.756;2023-02-03T01:14:55;13.40;;;12.07;;
14592;SDS011;7383;52.354;9.756;2023-02-03T01:17:29;14.80;;;12.20;;
14592;SDS011;7383;52.354;9.756;2023-02-03T01:19:56;12.43;;;11.23;;
14592;SDS011;7383;52.354;9.756;2023-02-03T01:22:24;13.15;;;11.95;;
14592;SDS011;7383;52.354;9.756;2023-02-03T01:24:51;12.70;;;11.50;;
14592;SDS011;7383;52.354;9.756;2023-02-03T01:27:18;11.65;;;10.55;;
14592;SDS011;7383;52.354;9.756;2023-02-03T01:29:46;13.13;;;11.68;;
14592;SDS011;7383;52.354;9.756;2023-02-03T01:32:13;13.13;;;11.77;;
14592;SDS011;7383;52.354;9.756;2023-02-03T01:34:40;13.40;;;12.05;;
14592;SDS011;7383;52.354;9.756;2023-02-03T01:37:07;12.65;;;11.35;;
14592;SDS011;7383;52.354;9.756;2023-02-03T01:39:35;12.18;;;10.98;;
14592;SDS011;7383;52.354;9.756;2023-02-03T01:42:02;10.82;;;9.77;;
14592;SDS011;7383;52.354;9.756;2023-02-03T01:44:41;11.30;;;10.20;;
14592;SDS011;7383;52.354;9.756;2023-02-03T01:47:12;12.48;;;11.27;;
14592;SDS011;7383;52.354;9.756;2023-02-03T01:49:48;13.90;;;12.50;;
14592;SDS011;7383;52.354;9.756;2023-02-03T01:52:18;11.90;;;10.70;;
14592;SDS011;7383;52.354;9.756;2023-02-03T01:54:46;11.40;;;10.38;;
14592;SDS011;7383;52.354;9.756;2023-02-03T01:57:16;12.77;;;11.55;;
14592;SDS011;7383;52.354;9.756;2023-02-03T01:59:48;14.05;;;11.20;;
14592;SDS011;7383;52.354;9.756;2023-02-03T02:02:16;10.63;;;9.63;;
14592;SDS011;7383;52.354;9.756;2023-02-03T02:04:45;10.32;;;9.35;;
14592;SDS011;7383;52.354;9.756;2023-02-03T02:07:19;9.77;;;8.88;;
14592;SDS011;7383;52.354;9.756;2023-02-03T02:09:47;10.15;;;9.20;;
14592;SDS011;7383;52.354;9.756;2023-02-03T02:12:14;10.52;;;9.63;;
14592;SDS011;7383;52.354;9.756;2023-02-03T02:14:40;11.18;;;10.07;;
14592;SDS011;7383;52.354;9.756;2023-02-03T02:17:10;9.85;;;8.95;;
14592;SDS011;7383;52.354;9.756;2023-02-03T02:19:58;10.05;;;9.05;;
14592;SDS011;7383;52.354;9.756;2023-02-03T02:22:56;10.27;;;9.35;;
14592;SDS011;7383;52.354;9.756;2023-02-03T02:25:43;9.52;;;8.73;;
14592;SDS011;7383;52.354;9.756;2023-02-03T02:34:18;9.07;;;8.18;;
14592;SDS011;7383;52.354;9.756;2023-02-03T02:36:54;8.98;;;8.18;;
14592;SDS011;7383;52.354;9.756;2023-02-03T02:39:32;9.23;;;8.45;;
14592;SDS011;7383;52.354;9.756;2023-02-03T02:42:05;9.63;;;8.35;;
14592;SDS011;7383;52.354;9.756;2023-02-03T02:44:40;8.13;;;7.43;;
14592;SDS011;7383;52.354;9.756;2023-02-03T02:47:16;8.00;;;7.30;;
14592;SDS011;7383;52.354;9.756;2023-02-03T02:49:46;8.55;;;7.82;;
14592;SDS011;7383;52.354;9.756;2023-02-03T02:52:17;8.80;;;7.90;;
14592;SDS011;7383;52.354;9.756;2023-02-03T02:54:47;8.50;;;7.80;;
14592;SDS011;7383;52.354;9.756;2023-02-03T02:57:16;8.00;;;6.82;;
14592;SDS011;7383;52.354;9.756;2023-02-03T02:59:45;8.10;;;7.30;;
14592;SDS011;7383;52.354;9.756;2023-02-03T03:02:12;8.32;;;7.47;;
14592;SDS011;7383;52.354;9.756;2023-02-03T03:04:40;8.60;;;7.80;;
14592;SDS011;7383;52.354;9.756;2023-02-03T03:07:11;7.70;;;6.97;;
14592;SDS011;7383;52.354;9.756;2023-02-03T03:09:45;8.60;;;7.70;;
14592;SDS011;7383;52.354;9.756;2023-02-03T03:12:16;10.05;;;8.05;;
14592;SDS011;7383;52.354;9.756;2023-02-03T03:14:47;7.82;;;7.03;;
14592;SDS011;7383;52.354;9.756;2023-02-03T03:17:18;7.75;;;6.95;;
14592;SDS011;7383;52.354;9.756;2023-02-03T03:19:51;7.97;;;7.03;;
14592;SDS011;7383;52.354;9.756;2023-02-03T03:22:21;7.95;;;7.20;;
14592;SDS011;7383;52.354;9.756;2023-02-03T03:24:53;7.10;;;6.45;;
14592;SDS011;7383;52.354;9.756;2023-02-03T03:27:27;7.80;;;7.22;;
14592;SDS011;7383;52.354;9.756;2023-02-03T03:29:59;9.00;;;7.32;;
14592;SDS011;7383;52.354;9.756;2023-02-03T03:32:30;7.68;;;6.82;;
14592;SDS011;7383;52.354;9.756;2023-02-03T03:34:59;6.95;;;6.30;;
14592;SDS011;7383;52.354;9.756;2023-02-03T03:37:29;7.85;;;7.15;;
14592;SDS011;7383;52.354;9.756;2023-02-03T03:40:01;8.27;;;6.93;;
14592;SDS011;7383;52.354;9.756;2023-02-03T03:42:36;6.78;;;6.25;;
14592;SDS011;7383;52.354;9.756;2023-02-03T03:45:09;7.97;;;6.95;;
14592;SDS011;7383;52.354;9.756;2023-02-03T03:47:43;6.72;;;6.13;;
14592;SDS011;7383;52.354;9.756;2023-02-03T03:50:16;6.35;;;5.75;;
14592;SDS011;7383;52.354;9.756;2023-02-03T03:52:46;6.75;;;6.10;;
14592;SDS011;7383;52.354;9.756;2023-02-03T03:55:16;5.93;;;5.43;;
14592;SDS011;7383;52.354;9.756;2023-02-03T03:57:47;6.78;;;6.07;;
14592;SDS011;7383;52.354;9.756;2023-02-03T04:00:21;5.80;;;5.38;;
14592;SDS011;7383;52.354;9.756;2023-02-03T04:02:55;6.22;;;5.68;;
14592;SDS011;7383;52.354;9.756;2023-02-03T04:05:26;6.60;;;5.50;;
14592;SDS011;7383;52.354;9.756;2023-02-03T04:07:53;5.15;;;4.68;;
14592;SDS011;7383;52.354;9.756;2023-02-03T04:10:22;6.25;;;5.75;;
14592;SDS011;7383;52.354;9.756;2023-02-03T04:12:55;6.10;;;5.50;;
14592;SDS011;7383;52.354;9.756;2023-02-03T04:15:22;5.80;;;5.25;;
14592;SDS011;7383;52.354;9.756;2023-02-03T04:17:49;7.75;;;6.00;;
14592;SDS011;7383;52.354;9.756;2023-02-03T04:20:19;6.50;;;5.90;;
14592;SDS011;7383;52.354;9.756;2023-02-03T04:22:47;6.75;;;6.03;;
14592;SDS011;7383;52.354;9.756;2023-02-03T04:25:14;6.38;;;5.88;;
14592;SDS011;7383;52.354;9.756;2023-02-03T04:27:41;6.85;;;5.65;;
14592;SDS011;7383;52.354;9.756;2023-02-03T04:30:08;6.75;;;5.60;;
14592;SDS011;7383;52.354;9.756;2023-02-03T04:32:35;6.10;;;5.60;;
14592;SDS011;7383;52.354;9.756;2023-02-03T04:35:02;6.15;;;5.57;;
14592;SDS011;7383;52.354;9.756;2023-02-03T04:37:29;6.45;;;5.80;;
14592;SDS011;7383;52.354;9.756;2023-02-03T04:39:57;6.32;;;5.82;;
14592;SDS011;7383;52.354;9.756;2023-02-03T04:42:25;8.48;;;6.20;;
14592;SDS011;7383;52.354;9.756;2023-02-03T04:44:52;5.97;;;5.30;;
14592;SDS011;7383;52.354;9.756;2023-02-03T04:47:19;7.35;;;5.90;;
14592;SDS011;7383;52.354;9.756;2023-02-03T04:49:46;9.30;;;6.80;;
14592;SDS011;7383;52.354;9.756;2023-02-03T04:52:13;7.32;;;5.72;;
14592;SDS011;7383;52.354;9.756;2023-02-03T04:54:39;7.00;;;6.40;;
14592;SDS011;7383;52.354;9.756;2023-02-03T04:57:07;6.25;;;5.65;;
14592;SDS011;7383;52.354;9.756;2023-02-03T04:59:34;6.00;;;5.40;;
14592;SDS011;7383;52.354;9.756;2023-02-03T05:02:00;6.70;;;5.78;;
14592;SDS011;7383;52.354;9.756;2023-02-03T05:04:27;7.38;;;6.20;;
14592;SDS011;7383;52.354;9.756;2023-02-03T05:06:54;6.53;;;5.20;;
14592;SDS011;7383;52.354;9.756;2023-02-03T05:09:21;6.78;;;6.10;;
14592;SDS011;7383;52.354;9.756;2023-02-03T05:11:48;7.07;;;5.50;;
14592;SDS011;7383;52.354;9.756;2023-02-03T05:14:20;6.53;;;5.80;;
14592;SDS011;7383;52.354;9.756;2023-02-03T05:16:46;6.18;;;5.60;;
14592;SDS011;7383;52.354;9.756;2023-02-03T05:19:13;5.75;;;5.25;;
14592;SDS011;7383;52.354;9.756;2023-02-03T05:21:39;5.47;;;4.82;;
14592;SDS011;7383;52.354;9.756;2023-02-03T05:24:06;5.95;;;5.43;;
14592;SDS011;7383;52.354;9.756;2023-02-03T05:26:33;6.68;;;5.68;;
14592;SDS011;7383;52.354;9.756;2023-02-03T05:29:02;6.15;;;5.13;;
14592;SDS011;7383;52.354;9.756;2023-02-03T05:31:30;5.90;;;5.15;;
14592;SDS011;7383;52.354;9.756;2023-02-03T05:33:57;5.30;;;4.80;;
14592;SDS011;7383;52.354;9.756;2023-02-03T05:36:24;6.32;;;5.22;;
14592;SDS011;7383;52.354;9.756;2023-02-03T05:38:50;6.45;;;5.05;;
14592;SDS011;7383;52.354;9.756;2023-02-03T05:41:17;6.22;;;4.75;;
14592;SDS011;7383;52.354;9.756;2023-02-03T05:44:01;8.45;;;5.07;;
14592;SDS011;7383;52.354;9.756;2023-02-03T05:46:29;5.38;;;4.72;;
14592;SDS011;7383;52.354;9.756;2023-02-03T05:48:56;5.65;;;5.10;;
14592;SDS011;7383;52.354;9.756;2023-02-03T05:51:22;5.70;;;5.13;;
14592;SDS011;7383;52.354;9.756;2023-02-03T05:53:49;6.53;;;4.85;;
14592;SDS011;7383;52.354;9.756;2023-02-03T05:56:18;9.18;;;5.38;;
14592;SDS011;7383;52.354;9.756;2023-02-03T05:58:44;5.53;;;4.82;;
14592;SDS011;7383;52.354;9.756;2023-02-03T06:01:11;6.25;;;4.63;;
14592;SDS011;7383;52.354;9.756;2023-02-03T06:03:39;5.25;;;4.75;;
14592;SDS011;7383;52.354;9.756;2023-02-03T06:06:05;5.30;;;4.70;;
14592;SDS011;7383;52.354;9.756;2023-02-03T06:08:32;5.40;;;4.90;;
14592;SDS011;7383;52.354;9.756;2023-02-03T06:10:58;6.05;;;4.75;;
14592;SDS011;7383;52.354;9.756;2023-02-03T06:13:25;4.85;;;4.45;;
14592;SDS011;7383;52.354;9.756;2023-02-03T06:15:52;4.68;;;4.28;;
14592;SDS011;7383;52.354;9.756;2023-02-03T06:18:19;4.70;;;4.22;;
14592;SDS011;7383;52.354;9.756;2023-02-03T06:20:46;5.45;;;4.68;;
14592;SDS011;7383;52.354;9.756;2023-02-03T06:23:13;7.63;;;5.40;;
14592;SDS011;7383;52.354;9.756;2023-02-03T06:25:41;6.93;;;4.80;;
14592;SDS011;7383;52.354;9.756;2023-02-03T06:28:10;7.65;;;5.25;;
14592;SDS011;7383;52.354;9.756;2023-02-03T06:30:37;5.13;;;4.55;;
14592;SDS011;7383;52.354;9.756;2023-02-03T06:33:03;5.93;;;4.35;;
14592;SDS011;7383;52.354;9.756;2023-02-03T06:35:30;6.05;;;4.35;;
14592;SDS011;7383;52.354;9.756;2023-02-03T06:37:58;4.75;;;4.30;;
14592;SDS011;7383;52.354;9.756;2023-02-03T06:40:24;5.82;;;4.75;;
14592;SDS011;7383;52.354;9.756;2023-02-03T06:42:51;4.57;;;4.18;;
14592;SDS011;7383;52.354;9.756;2023-02-03T06:45:17;5.35;;;4.78;;
14592;SDS011;7383;52.354;9.756;2023-02-03T06:47:44;5.97;;;4.85;;
14592;SDS011;7383;52.354;9.756;2023-02-03T06:50:12;5.88;;;5.25;;
14592;SDS011;7383;52.354;9.756;2023-02-03T06:52:39;5.00;;;4.60;;
14592;SDS011;7383;52.354;9.756;2023-02-03T06:55:08;5.78;;;4.55;;
14592;SDS011;7383;52.354;9.756;2023-02-03T06:57:34;5.32;;;4.13;;
14592;SDS011;7383;52.354;9.756;2023-02-03T07:00:08;6.95;;;4.70;;
14592;SDS011;7383;52.354;9.756;2023-02-03T07:02:35;5.13;;;4.07;;
14592;SDS011;7383;52.354;9.756;2023-02-03T07:05:02;5.05;;;4.60;;
14592;SDS011;7383;52.354;9.756;2023-02-03T07:07:28;6.70;;;5.07;;
14592;SDS011;7383;52.354;9.756;2023-02-03T07:09:56;4.82;;;4.10;;
14592;SDS011;7383;52.354;9.756;2023-02-03T07:12:24;5.40;;;4.90;;
14592;SDS011;7383;52.354;9.756;2023-02-03T07:14:51;5.32;;;4.28;;
14592;SDS011;7383;52.354;9.756;2023-02-03T07:17:19;5.57;;;4.70;;
14592;SDS011;7383;52.354;9.756;2023-02-03T07:19:45;4.70;;;4.30;;
14592;SDS011;7383;52.354;9.756;2023-02-03T07:22:12;4.03;;;3.72;;
14592;SDS011;7383;52.354;9.756;2023-02-03T07:24:38;4.25;;;3.80;;
14592;SDS011;7383;52.354;9.756;2023-02-03T07:27:05;3.83;;;3.42;;
14592;SDS011;7383;52.354;9.756;2023-02-03T07:29:32;4.85;;;4.05;;
14592;SDS011;7383;52.354;9.756;2023-02-03T07:31:59;4.38;;;3.97;;
14592;SDS011;7383;52.354;9.756;2023-02-03T07:34:26;3.97;;;3.60;;
14592;SDS011;7383;52.354;9.756;2023-02-03T07:36:53;4.10;;;3.53;;
14592;SDS011;7383;52.354;9.756;2023-02-03T07:39:19;4.35;;;3.95;;
14592;SDS011;7383;52.354;9.756;2023-02-03T07:41:45;3.47;;;3.22;;
14592;SDS011;7383;52.354;9.756;2023-02-03T07:44:12;3.92;;;3.60;;
14592;SDS011;7383;52.354;9.756;2023-02-03T07:46:40;3.90;;;3.50;;
14592;SDS011;7383;52.354;9.756;2023-02-03T07:49:08;3.63;;;3.35;;
14592;SDS011;7383;52.354;9.756;2023-02-03T07:51:35;3.15;;;2.95;;
14592;SDS011;7383;52.354;9.756;2023-02-03T07:54:01;4.18;;;3.78;;
14592;SDS011;7383;52.354;9.756;2023-02-03T07:56:28;4.22;;;3.92;;
14592;SDS011;7383;52.354;9.756;2023-02-03T07:58:56;3.80;;;3.50;;
14592;SDS011;7383;52.354;9.756;2023-02-03T08:01:23;3.50;;;3.28;;
14592;SDS011;7383;52.354;9.756;2023-02-03T08:03:51;3.33;;;3.13;;
14592;SDS011;7383;52.354;9.756;2023-02-03T08:06:17;3.92;;;3.63;;
14592;SDS011;7383;52.354;9.756;2023-02-03T08:08:44;4.35;;;3.95;;
14592;SDS011;7383;52.354;9.756;2023-02-03T08:11:10;3.90;;;3.70;;
14592;SDS011;7383;52.354;9.756;2023-02-03T08:13:36;3.83;;;3.10;;
14592;SDS011;7383;52.354;9.756;2023-02-03T08:16:03;3.92;;;3.63;;
14592;SDS011;7383;52.354;9.756;2023-02-03T08:18:30;4.05;;;3.75;;
14592;SDS011;7383;52.354;9.756;2023-02-03T08:20:58;4.70;;;3.72;;
14592;SDS011;7383;52.354;9.756;2023-02-03T08:23:24;4.22;;;3.90;;
14592;SDS011;7383;52.354;9.756;2023-02-03T08:25:51;4.53;;;4.13;;
14592;SDS011;7383;52.354;9.756;2023-02-03T08:28:18;4.72;;;4.00;;
14592;SDS011;7383;52.354;9.756;2023-02-03T08:30:45;5.05;;;4.55;;
14592;SDS011;7383;52.354;9.756;2023-02-03T08:33:12;4.43;;;4.03;;
14592;SDS011;7383;52.354;9.756;2023-02-03T08:35:38;4.55;;;4.20;;
14592;SDS011;7383;52.354;9.756;2023-02-03T08:38:20;4.43;;;4.03;;
14592;SDS011;7383;52.354;9.756;2023-02-03T08:40:47;4.13;;;3.70;;
14592;SDS011;7383;52.354;9.756;2023-02-03T08:43:13;4.47;;;4.15;;
14592;SDS011;7383;52.354;9.756;2023-02-03T08:45:40;4.40;;;4.05;;
14592;SDS011;7383;52.354;9.756;2023-02-03T08:48:06;5.00;;;4.50;;
14592;SDS011;7383;52.354;9.756;2023-02-03T08:50:33;4.75;;;4.22;;
14592;SDS011;7383;52.354;9.756;2023-02-03T08:52:59;5.10;;;4.28;;
14592;SDS011;7383;52.354;9.756;2023-02-03T08:55:27;4.70;;;4.30;;
14592;SDS011;7383;52.354;9.756;2023-02-03T08:57:54;5.65;;;4.20;;
14592;SDS011;7383;52.354;9.756;2023-02-03T09:00:20;4.40;;;3.95;;
14592;SDS011;7383;52.354;9.756;2023-02-03T09:02:47;5.20;;;4.22;;
14592;SDS011;7383;52.354;9.756;2023-02-03T09:05:14;4.93;;;4.00;;
14592;SDS011;7383;52.354;9.756;2023-02-03T09:07:42;5.85;;;4.72;;
14592;SDS011;7383;52.354;9.756;2023-02-03T09:10:09;4.97;;;4.13;;
14592;SDS011;7383;52.354;9.756;2023-02-03T09:12:37;4.40;;;3.90;;
14592;SDS011;7383;52.354;9.756;2023-02-03T09:15:03;4.07;;;3.78;;
14592;SDS011;7383;52.354;9.756;2023-02-03T09:17:30;4.40;;;3.80;;
14592;SDS011;7383;52.354;9.756;2023-02-03T09:19:57;6.13;;;3.97;;
14592;SDS011;7383;52.354;9.756;2023-02-03T09:22:23;4.22;;;3.83;;
14592;SDS011;7383;52.354;9.756;2023-02-03T09:24:49;4.82;;;3.60;;
14592;SDS011;7383;52.354;9.756;2023-02-03T09:27:16;5.07;;;3.72;;
14592;SDS011;7383;52.354;9.756;2023-02-03T09:29:44;6.35;;;3.85;;
14592;SDS011;7383;52.354;9.756;2023-02-03T09:32:10;4.03;;;3.42;;
14592;SDS011;7383;52.354;9.756;2023-02-03T09:34:37;4.47;;;3.30;;
14592;SDS011;7383;52.354;9.756;2023-02-03T09:37:05;3.85;;;3.40;;
14592;SDS011;7383;52.354;9.756;2023-02-03T09:39:31;5.15;;;3.75;;
14592;SDS011;7383;52.354;9.756;2023-02-03T09:42:05;6.18;;;3.67;;
14592;SDS011;7383;52.354;9.756;2023-02-03T09:44:44;5.15;;;3.67;;
14592;SDS011;7383;52.354;9.756;2023-02-03T09:47:17;3.95;;;3.55;;
14592;SDS011;7383;52.354;9.756;2023-02-03T09:49:49;4.82;;;4.18;;
14592;SDS011;7383;52.354;9.756;2023-02-03T09:52:17;6.90;;;3.88;;
14592;SDS011;7383;52.354;9.756;2023-02-03T09:54:47;6.97;;;3.47;;
14592;SDS011;7383;52.354;9.756;2023-02-03T09:57:20;5.70;;;3.92;;
14592;SDS011;7383;52.354;9.756;2023-02-03T09:59:49;5.18;;;3.40;;
14592;SDS011;7383;52.354;9.756;2023-02-03T10:02:21;3.47;;;2.67;;
14592;SDS011;7383;52.354;9.756;2023-02-03T10:04:58;6.22;;;3.10;;
14592;SDS011;7383;52.354;9.756;2023-02-03T10:07:32;4.85;;;3.20;;
14592;SDS011;7383;52.354;9.756;2023-02-03T10:10:07;4.75;;;2.70;;
14592;SDS011;7383;52.354;9.756;2023-02-03T10:12:46;5.03;;;2.90;;
14592;SDS011;7383;52.354;9.756;2023-02-03T10:15:42;5.63;;;3.20;;
14592;SDS011;7383;52.354;9.756;2023-02-03T10:18:22;2.97;;;2.67;;
14592;SDS011;7383;52.354;9.756;2023-02-03T10:20:52;6.15;;;2.80;;
14592;SDS011;7383;52.354;9.756;2023-02-03T10:23:22;3.85;;;2.65;;
14592;SDS011;7383;52.354;9.756;2023-02-03T10:25:55;2.72;;;2.40;;
14592;SDS011;7383;52.354;9.756;2023-02-03T10:28:25;5.35;;;2.75;;
14592;SDS011;7383;52.354;9.756;2023-02-03T10:30:56;5.90;;;2.70;;
14592;SDS011;7383;52.354;9.756;2023-02-03T10:33:25;5.68;;;2.00;;
14592;SDS011;7383;52.354;9.756;2023-02-03T10:35:53;5.10;;;2.53;;
14592;SDS011;7383;52.354;9.756;2023-02-03T10:38:29;6.47;;;2.50;;
14592;SDS011;7383;52.354;9.756;2023-02-03T10:41:03;7.40;;;2.72;;
14592;SDS011;7383;52.354;9.756;2023-02-03T10:43:30;3.40;;;2.03;;
14592;SDS011;7383;52.354;9.756;2023-02-03T10:46:15;2.30;;;1.52;;
14592;SDS011;7383;52.354;9.756;2023-02-03T10:48:44;4.47;;;2.20;;
14592;SDS011;7383;52.354;9.756;2023-02-03T10:51:11;3.42;;;1.80;;
14592;SDS011;7383;52.354;9.756;2023-02-03T10:53:45;4.18;;;2.35;;
14592;SDS011;7383;52.354;9.756;2023-02-03T10:56:12;3.88;;;1.77;;
14592;SDS011;7383;52.354;9.756;2023-02-03T10:58:45;4.43;;;2.00;;
14592;SDS011;7383;52.354;9.756;2023-02-03T11:01:15;3.72;;;1.73;;
14592;SDS011;7383;52.354;9.756;2023-02-03T11:03:52;4.18;;;2.00;;
14592;SDS011;7383;52.354;9.756;2023-02-03T11:06:20;6.40;;;2.47;;
14592;SDS011;7383;52.354;9.756;2023-02-03T11:08:48;4.80;;;2.58;;
14592;SDS011;7383;52.354;9.756;2023-02-03T11:11:20;4.25;;;2.20;;
14592;SDS011;7383;52.354;9.756;2023-02-03T11:13:52;7.47;;;2.33;;
14592;SDS011;7383;52.354;9.756;2023-02-03T11:16:21;5.05;;;2.63;;
14592;SDS011;7383;52.354;9.756;2023-02-03T11:18:53;4.60;;;2.25;;
14592;SDS011;7383;52.354;9.756;2023-02-03T11:21:23;9.40;;;2.40;;
14592;SDS011;7383;52.354;9.756;2023-02-03T11:23:54;5.43;;;2.05;;
14592;SDS011;7383;52.354;9.756;2023-02-03T11:26:24;5.10;;;2.20;;
14592;SDS011;7383;52.354;9.756;2023-02-03T11:28:55;5.13;;;2.50;;
14592;SDS011;7383;52.354;9.756;2023-02-03T11:31:25;5.10;;;2.25;;
14592;SDS011;7383;52.354;9.756;2023-02-03T11:33:55;6.95;;;2.47;;
14592;SDS011;7383;52.354;9.756;2023-02-03T11:36:24;5.40;;;2.63;;
14592;SDS011;7383;52.354;9.756;2023-02-03T11:39:08;8.15;;;3.20;;
14592;SDS011;7383;52.354;9.756;2023-02-03T11:41:41;8.77;;;2.70;;
14592;SDS011;7383;52.354;9.756;2023-02-03T11:44:11;7.80;;;3.83;;
14592;SDS011;7383;52.354;9.756;2023-02-03T11:46:42;9.20;;;3.42;;
14592;SDS011;7383;52.354;9.756;2023-02-03T11:49:12;7.43;;;3.05;;
14592;SDS011;7383;52.354;9.756;2023-02-03T11:51:56;6.32;;;2.53;;
14592;SDS011;7383;52.354;9.756;2023-02-03T11:54:30;9.93;;;3.53;;
14592;SDS011;7383;52.354;9.756;2023-02-03T11:57:13;5.55;;;2.47;;
14592;SDS011;7383;52.354;9.756;2023-02-03T11:59:54;8.63;;;2.80;;
14592;SDS011;7383;52.354;9.756;2023-02-03T12:02:37;8.05;;;2.58;;
14592;SDS011;7383;52.354;9.756;2023-02-03T12:08:18;5.45;;;2.72;;
14592;SDS011;7383;52.354;9.756;2023-02-03T12:10:56;9.10;;;3.28;;
14592;SDS011;7383;52.354;9.756;2023-02-03T12:13:38;9.05;;;3.20;;
14592;SDS011;7383;52.354;9.756;2023-02-03T12:16:20;4.85;;;2.55;;
14592;SDS011;7383;52.354;9.756;2023-02-03T12:19:01;8.20;;;2.78;;
14592;SDS011;7383;52.354;9.756;2023-02-03T12:21:46;6.68;;;2.85;;
14592;SDS011;7383;52.354;9.756;2023-02-03T12:24:21;7.13;;;2.90;;
14592;SDS011;7383;52.354;9.756;2023-02-03T12:26:57;9.40;;;3.42;;
14592;SDS011;7383;52.354;9.756;2023-02-03T12:29:35;9.10;;;3.65;;
14592;SDS011;7383;52.354;9.756;2023-02-03T12:32:10;10.82;;;3.45;;
14592;SDS011;7383;52.354;9.756;2023-02-03T12:34:46;9.25;;;3.53;;
14592;SDS011;7383;52.354;9.756;2023-02-03T12:37:18;8.30;;;3.40;;
14592;SDS011;7383;52.354;9.756;2023-02-03T12:39:49;9.68;;;3.13;;
14592;SDS011;7383;52.354;9.756;2023-02-03T12:42:18;7.55;;;3.30;;
14592;SDS011;7383;52.354;9.756;2023-02-03T12:44:49;9.77;;;2.80;;
14592;SDS011;7383;52.354;9.756;2023-02-03T12:47:22;7.55;;;2.70;;
14592;SDS011;7383;52.354;9.756;2023-02-03T12:49:55;10.35;;;3.58;;
14592;SDS011;7383;52.354;9.756;2023-02-03T12:52:25;8.38;;;2.92;;
14592;SDS011;7383;52.354;9.756;2023-02-03T12:55:00;6.75;;;2.90;;
14592;SDS011;7383;52.354;9.756;2023-02-03T12:57:34;9.57;;;3.15;;
14592;SDS011;7383;52.354;9.756;2023-02-03T13:00:08;6.30;;;2.65;;
14592;SDS011;7383;52.354;9.756;2023-02-03T13:02:47;10.13;;;3.78;;
14592;SDS011;7383;52.354;9.756;2023-02-03T13:05:23;7.63;;;2.95;;
14592;SDS011;7383;52.354;9.756;2023-02-03T13:07:58;7.95;;;3.00;;
14592;SDS011;7383;52.354;9.756;2023-02-03T13:10:32;8.35;;;2.70;;
14592;SDS011;7383;52.354;9.756;2023-02-03T13:13:04;9.68;;;3.30;;
14592;SDS011;7383;52.354;9.756;2023-02-03T13:15:38;7.80;;;2.97;;
14592;SDS011;7383;52.354;9.756;2023-02-03T13:18:13;6.82;;;2.45;;
14592;SDS011;7383;52.354;9.756;2023-02-03T13:20:47;7.40;;;2.97;;
14592;SDS011;7383;52.354;9.756;2023-02-03T13:23:14;7.32;;;2.45;;
14592;SDS011;7383;52.354;9.756;2023-02-03T13:25:53;7.60;;;3.50;;
14592;SDS011;7383;52.354;9.756;2023-02-03T13:28:36;11.27;;;3.28;;
14592;SDS011;7383;52.354;9.756;2023-02-03T13:31:20;7.88;;;2.95;;
14592;SDS011;7383;52.354;9.756;2023-02-03T13:34:02;7.95;;;2.80;;
14592;SDS011;7383;52.354;9.756;2023-02-03T13:36:53;9.48;;;2.72;;
14592;SDS011;7383;52.354;9.756;2023-02-03T13:39:49;6.90;;;2.95;;
14592;SDS011;7383;52.354;9.756;2023-02-03T13:42:23;7.75;;;3.28;;
14592;SDS011;7383;52.354;9.756;2023-02-03T13:44:56;8.50;;;3.05;;
14592;SDS011;7383;52.354;9.756;2023-02-03T13:48:06;9.55;;;3.05;;
14592;SDS011;7383;52.354;9.756;2023-02-03T13:50:31;6.72;;;2.80;;
14592;SDS011;7383;52.354;9.756;2023-02-03T13:53:13;5.95;;;2.70;;
14592;SDS011;7383;52.354;9.756;2023-02-03T13:55:43;8.20;;;2.97;;
14592;SDS011;7383;52.354;9.756;2023-02-03T13:58:56;6.90;;;3.10;;
14592;SDS011;7383;52.354;9.756;2023-02-03T14:01:29;7.80;;;3.03;;
14592;SDS011;7383;52.354;9.756;2023-02-03T14:04:00;7.35;;;3.00;;
14592;SDS011;7383;52.354;9.756;2023-02-03T14:09:46;8.20;;;3.03;;
14592;SDS011;7383;52.354;9.756;2023-02-03T14:15:30;7.85;;;2.60;;
14592;SDS011;7383;52.354;9.756;2023-02-03T14:18:03;6.63;;;2.78;;
14592;SDS011;7383;52.354;9.756;2023-02-03T14:21:08;4.35;;;2.63;;
14592;SDS011;7383;52.354;9.756;2023-02-03T14:23:38;5.53;;;2.20;;
14592;SDS011;7383;52.354;9.756;2023-02-03T14:26:24;8.02;;;2.88;;
14592;SDS011;7383;52.354;9.756;2023-02-03T14:28:57;6.72;;;2.70;;
14592;SDS011;7383;52.354;9.756;2023-02-03T14:31:29;6.75;;;2.20;;
14592;SDS011;7383;52.354;9.756;2023-02-03T14:34:19;7.03;;;2.42;;
14592;SDS011;7383;52.354;9.756;2023-02-03T14:36:55;5.78;;;2.55;;
14592;SDS011;7383;52.354;9.756;2023-02-03T14:39:39;7.70;;;2.63;;
14592;SDS011;7383;52.354;9.756;2023-02-03T14:42:29;6.20;;;2.70;;
14592;SDS011;7383;52.354;9.756;2023-02-03T14:45:49;8.13;;;2.80;;
14592;SDS011;7383;52.354;9.756;2023-02-03T15:37:05;6.22;;;2.80;;
14592;SDS011;7383;52.354;9.756;2023-02-03T15:39:42;5.78;;;2.50;;
14592;SDS011;7383;52.354;9.756;2023-02-03T15:42:30;7.88;;;3.03;;
14592;SDS011;7383;52.354;9.756;2023-02-03T15:52:19;7.07;;;2.92;;
14592;SDS011;7383;52.354;9.756;2023-02-03T15:54:50;6.90;;;3.00;;
14592;SDS011;7383;52.354;9.756;2023-02-03T15:57:31;7.88;;;2.90;;
14592;SDS011;7383;52.354;9.756;2023-02-03T16:00:07;8.75;;;3.08;;
14592;SDS011;7383;52.354;9.756;2023-02-03T16:02:38;12.15;;;3.13;;
14592;SDS011;7383;52.354;9.756;2023-02-03T16:05:16;5.50;;;2.60;;
14592;SDS011;7383;52.354;9.756;2023-02-03T16:07:49;6.88;;;3.00;;
14592;SDS011;7383;52.354;9.756;2023-02-03T16:10:26;7.53;;;2.63;;
14592;SDS011;7383;52.354;9.756;2023-02-03T16:13:20;8.52;;;3.00;;
14592;SDS011;7383;52.354;9.756;2023-02-03T16:16:02;7.82;;;2.80;;
14592;SDS011;7383;52.354;9.756;2023-02-03T16:18:48;7.45;;;3.10;;
14592;SDS011;7383;52.354;9.756;2023-02-03T16:24:42;10.75;;;2.97;;
14592;SDS011;7383;52.354;9.756;2023-02-03T16:27:27;6.47;;;2.83;;
14592;SDS011;7383;52.354;9.756;2023-02-03T16:33:10;9.25;;;3.70;;
14592;SDS011;7383;52.354;9.756;2023-02-03T16:36:12;8.13;;;3.53;;
14592;SDS011;7383;52.354;9.756;2023-02-03T16:38:57;10.13;;;3.33;;
14592;SDS011;7383;52.354;9.756;2023-02-03T16:41:45;8.50;;;3.80;;
14592;SDS011;7383;52.354;9.756;2023-02-03T16:44:30;11.68;;;5.00;;